createdAt,value
2018-12-27T00:01:50.741Z,102001.55
2018-12-27T00:04:19.820Z,102004.45
2018-12-27T00:06:48.912Z,102001.14
2018-12-27T00:09:17.994Z,101990.20
2018-12-27T00:11:47.024Z,101982.70
2018-12-27T00:14:16.150Z,101975.97
2018-12-27T00:16:45.221Z,101969.63
2018-12-27T00:19:14.491Z,101968.53
2018-12-27T00:21:43.346Z,101969.89
2018-12-27T00:24:12.409Z,101968.97
2018-12-27T00:26:41.475Z,101977.16
2018-12-27T00:29:10.783Z,101973.61
2018-12-27T00:31:39.618Z,101968.40
2018-12-27T00:34:08.708Z,101970.95
2018-12-27T00:36:37.808Z,101974.57
2018-12-27T00:39:06.890Z,101970.13
2018-12-27T00:41:35.936Z,101966.95
2018-12-27T00:44:05.046Z,101963.22
2018-12-27T00:46:34.109Z,101964.87
2018-12-27T00:49:03.207Z,101960.38
2018-12-27T00:51:32.276Z,101962.89
2018-12-27T00:54:01.374Z,101961.55
2018-12-27T00:56:30.452Z,101962.48
2018-12-27T00:58:59.592Z,101949.62
2018-12-27T01:01:28.657Z,101951.41
2018-12-27T01:03:57.745Z,101949.93
2018-12-27T01:06:26.847Z,101952.61
2018-12-27T01:08:55.905Z,101953.63
2018-12-27T01:11:24.940Z,101952.54
2018-12-27T01:13:54.031Z,101948.48
2018-12-27T01:16:23.062Z,101945.29
2018-12-27T01:18:52.131Z,101943.42
2018-12-27T01:21:21.255Z,101938.52
2018-12-27T01:23:50.332Z,101938.23
2018-12-27T01:26:19.377Z,101936.73
2018-12-27T01:28:48.493Z,101934.97
2018-12-27T01:31:17.535Z,101934.25
2018-12-27T01:33:46.603Z,101928.17
2018-12-27T01:36:15.666Z,101928.93
2018-12-27T01:38:44.980Z,101925.30
2018-12-27T01:41:13.804Z,101923.28
2018-12-27T01:43:42.974Z,101922.63
2018-12-27T01:46:12.014Z,101913.09
2018-12-27T01:48:41.103Z,101913.42
2018-12-27T01:51:10.179Z,101903.27
2018-12-27T01:53:39.262Z,101901.93
2018-12-27T01:56:08.295Z,101907.53
2018-12-27T01:58:37.407Z,101909.77
2018-12-27T02:01:06.455Z,101903.68
2018-12-27T02:03:35.545Z,101897.98
2018-12-27T02:06:04.617Z,101901.26
2018-12-27T02:08:33.688Z,101894.80
2018-12-27T02:11:02.733Z,101892.06
2018-12-27T02:13:31.847Z,101890.23
2018-12-27T02:16:00.896Z,101891.55
2018-12-27T02:18:29.963Z,101889.48
2018-12-27T02:20:59.039Z,101887.86
2018-12-27T02:23:28.109Z,101878.84
2018-12-27T02:25:57.143Z,101884.02
2018-12-27T02:28:26.355Z,101877.57
2018-12-27T02:30:55.403Z,101875.26
2018-12-27T02:33:24.588Z,101866.72
2018-12-27T02:35:53.636Z,101872.11
2018-12-27T02:38:22.706Z,101861.71
2018-12-27T02:40:51.727Z,101859.07
2018-12-27T02:43:21.025Z,101860.55
2018-12-27T02:45:49.848Z,101861.69
2018-12-27T02:48:18.923Z,101848.81
2018-12-27T02:50:48.071Z,101848.23
2018-12-27T02:53:17.350Z,101843.36
2018-12-27T02:55:46.174Z,101841.05
2018-12-27T02:58:15.341Z,101834.20
2018-12-27T03:00:44.366Z,101837.20
2018-12-27T03:03:13.639Z,101828.22
2018-12-27T03:05:42.520Z,101829.18
2018-12-27T03:08:11.552Z,101832.02
2018-12-27T03:10:40.600Z,101830.86
2018-12-27T03:13:09.716Z,101830.28
2018-12-27T03:15:38.746Z,101827.52
2018-12-27T03:18:07.795Z,101828.02
2018-12-27T03:20:36.870Z,101823.73
2018-12-27T03:23:05.942Z,101817.97
2018-12-27T03:25:34.947Z,101818.95
2018-12-27T03:28:04.037Z,101821.20
2018-12-27T03:30:33.063Z,101811.31
2018-12-27T03:33:02.122Z,101813.16
2018-12-27T03:35:31.233Z,101802.63
2018-12-27T03:38:00.282Z,101801.05
2018-12-27T03:40:29.454Z,101806.56
2018-12-27T03:42:58.410Z,101802.67
2018-12-27T03:45:27.447Z,101802.70
2018-12-27T03:47:56.486Z,101793.52
2018-12-27T03:50:25.559Z,101785.48
2018-12-27T03:52:54.597Z,101785.86
2018-12-27T03:55:23.645Z,101786.45
2018-12-27T03:57:52.794Z,101787.52
2018-12-27T04:00:21.837Z,101788.06
2018-12-27T04:02:50.880Z,101781.20
2018-12-27T04:05:19.949Z,101774.16
2018-12-27T04:07:48.990Z,101776.33
2018-12-27T04:10:18.019Z,101773.97
2018-12-27T04:12:47.095Z,101774.05
2018-12-27T04:15:16.149Z,101778.22
2018-12-27T04:17:45.187Z,101777.43
2018-12-27T04:20:14.275Z,101775.95
2018-12-27T04:22:43.340Z,101776.84
2018-12-27T04:25:12.379Z,101764.06
2018-12-27T04:27:41.454Z,101759.16
2018-12-27T04:30:10.502Z,101765.45
2018-12-27T04:32:39.550Z,101764.06
2018-12-27T04:35:08.622Z,101761.60
2018-12-27T04:37:37.693Z,101762.91
2018-12-27T04:40:06.738Z,101755.53
2018-12-27T04:42:35.820Z,101743.48
2018-12-27T04:45:04.863Z,101755.34
2018-12-27T04:47:33.909Z,101756.14
2018-12-27T04:50:02.984Z,101748.77
2018-12-27T04:52:32.034Z,101751.61
2018-12-27T04:55:01.341Z,101750.91
2018-12-27T04:57:30.493Z,101751.34
2018-12-27T04:59:59.550Z,101749.23
2018-12-27T05:02:28.610Z,101745.34
2018-12-27T05:04:57.737Z,101747.48
2018-12-27T05:07:26.803Z,101745.61
2018-12-27T05:09:55.835Z,101744.95
2018-12-27T05:12:24.934Z,101747.72
2018-12-27T05:14:53.969Z,101744.25
2018-12-27T05:17:23.044Z,101748.22
2018-12-27T05:19:52.117Z,101742.19
2018-12-27T05:22:21.192Z,101742.58
2018-12-27T05:24:50.238Z,101745.03
2018-12-27T05:27:19.604Z,101744.09
2018-12-27T05:29:48.439Z,101743.36
2018-12-27T05:32:17.507Z,101741.89
2018-12-27T05:34:46.809Z,101739.28
2018-12-27T05:37:15.859Z,101735.61
2018-12-27T05:39:44.911Z,101742.31
2018-12-27T05:42:14.018Z,101735.83
2018-12-27T05:44:43.112Z,101741.16
2018-12-27T05:47:12.120Z,101735.98
2018-12-27T05:49:41.220Z,101744.70
2018-12-27T05:52:10.292Z,101739.70
2018-12-27T05:54:39.336Z,101732.69
2018-12-27T05:57:08.423Z,101738.42
2018-12-27T05:59:37.464Z,101734.91
2018-12-27T06:02:06.520Z,101736.16
2018-12-27T06:04:35.602Z,101726.45
2018-12-27T06:07:04.659Z,101718.91
2018-12-27T06:09:33.710Z,101719.88
2018-12-27T06:12:03.085Z,101718.66
2018-12-27T06:14:32.168Z,101724.23
2018-12-27T06:17:01.215Z,101711.34
2018-12-27T06:19:30.294Z,101724.37
2018-12-27T06:21:59.359Z,101727.72
2018-12-27T06:24:28.397Z,101727.11
2018-12-27T06:26:57.494Z,101735.23
2018-12-27T06:29:26.544Z,101723.05
2018-12-27T06:31:55.621Z,101715.17
2018-12-27T06:34:24.708Z,101738.66
2018-12-27T06:36:53.780Z,101717.34
2018-12-27T06:39:22.823Z,101714.68
2018-12-27T06:41:51.919Z,101721.12
2018-12-27T06:44:20.941Z,101717.00
2018-12-27T06:46:50.021Z,101714.41
2018-12-27T06:49:19.300Z,101695.20
2018-12-27T06:51:48.357Z,101694.05
2018-12-27T06:54:17.407Z,101713.55
2018-12-27T06:56:46.574Z,101714.46
2018-12-27T06:59:15.590Z,101713.39
2018-12-27T07:01:44.640Z,101726.17
2018-12-27T07:04:13.712Z,101718.16
2018-12-27T07:06:42.754Z,101726.04
2018-12-27T07:09:11.806Z,101723.67
2018-12-27T07:11:40.878Z,101722.67
2018-12-27T07:14:09.919Z,101712.88
2018-12-27T07:16:38.966Z,101711.33
2018-12-27T07:19:08.147Z,101701.41
2018-12-27T07:21:37.195Z,101718.11
2018-12-27T07:24:06.251Z,101715.59
2018-12-27T07:26:35.340Z,101713.24
2018-12-27T07:29:04.375Z,101699.89
2018-12-27T07:31:33.429Z,101703.75
2018-12-27T07:34:02.509Z,101699.54
2018-12-27T07:36:31.799Z,101708.64
2018-12-27T07:39:00.619Z,101714.59
2018-12-27T07:41:29.730Z,101713.05
2018-12-27T07:43:58.839Z,101714.10
2018-12-27T07:46:27.840Z,101720.89
2018-12-27T07:48:56.935Z,101717.69
2018-12-27T07:51:26.011Z,101721.52
2018-12-27T07:53:55.033Z,101726.30
2018-12-27T07:56:24.115Z,101728.42
2018-12-27T07:58:53.156Z,101714.66
2018-12-27T08:01:22.234Z,101714.06
2018-12-27T08:03:51.310Z,101707.58
2018-12-27T08:06:20.588Z,101716.19
2018-12-27T08:08:49.420Z,101715.11
2018-12-27T08:11:18.519Z,101712.49
2018-12-27T08:13:47.565Z,101708.86
2018-12-27T08:16:16.634Z,101710.81
2018-12-27T08:18:45.757Z,101716.72
2018-12-27T08:21:15.057Z,101720.55
2018-12-27T08:23:44.117Z,101724.67
2018-12-27T08:26:13.256Z,101713.73
2018-12-27T08:28:42.314Z,101698.19
2018-12-27T08:31:11.365Z,101686.70
2018-12-27T08:33:40.452Z,101705.67
2018-12-27T08:36:09.545Z,101717.30
2018-12-27T08:38:38.566Z,101717.84
2018-12-27T08:41:07.892Z,101728.95
2018-12-27T08:43:36.703Z,101720.95
2018-12-27T08:46:05.977Z,101724.53
2018-12-27T08:48:35.086Z,101728.70
2018-12-27T08:51:04.159Z,101731.83
2018-12-27T08:53:33.191Z,101723.31
2018-12-27T08:56:02.579Z,101729.20
2018-12-27T08:58:31.627Z,101725.92
2018-12-27T09:01:00.667Z,101703.09
2018-12-27T09:03:29.753Z,101703.41
2018-12-27T09:05:58.820Z,101699.89
2018-12-27T09:08:27.867Z,101697.66
2018-12-27T09:10:56.998Z,101704.78
2018-12-27T09:13:26.040Z,101702.75
2018-12-27T09:15:55.113Z,101711.17
2018-12-27T09:18:24.313Z,101711.30
2018-12-27T09:20:53.389Z,101713.95
2018-12-27T09:23:22.446Z,101719.95
2018-12-27T09:25:51.517Z,101722.60
2018-12-27T09:28:20.572Z,101726.01
2018-12-27T09:30:49.618Z,101730.56
2018-12-27T09:33:18.716Z,101714.59
2018-12-27T09:35:47.766Z,101716.55
2018-12-27T09:38:16.827Z,101717.78
2018-12-27T09:40:45.901Z,101718.36
2018-12-27T09:43:14.947Z,101725.78
2018-12-27T09:45:43.994Z,101707.67
2018-12-27T09:48:13.074Z,101709.42
2018-12-27T09:50:42.119Z,101709.50
2018-12-27T09:53:11.154Z,101714.03
2018-12-27T09:55:40.604Z,101712.94
2018-12-27T09:58:09.654Z,101703.88
2018-12-27T10:00:39.869Z,101679.77
2018-12-27T10:03:07.788Z,101665.91
2018-12-27T10:05:36.844Z,101668.42
2018-12-27T10:08:05.896Z,101677.83
2018-12-27T10:10:35.305Z,101674.37
2018-12-27T10:13:04.363Z,101675.42
2018-12-27T10:15:33.436Z,101667.32
2018-12-27T10:18:02.746Z,101658.41
2018-12-27T10:20:31.800Z,101656.89
2018-12-27T10:23:00.857Z,101656.36
2018-12-27T10:25:29.948Z,101664.84
2018-12-27T10:27:59.008Z,101666.77
2018-12-27T10:30:28.058Z,101667.46
2018-12-27T10:32:57.135Z,101677.83
2018-12-27T10:35:26.193Z,101673.25
2018-12-27T10:37:55.260Z,101677.98
2018-12-27T10:40:24.353Z,101680.61
2018-12-27T10:42:53.392Z,101680.78
2018-12-27T10:45:22.442Z,101674.41
2018-12-27T10:47:51.516Z,101676.48
2018-12-27T10:50:20.579Z,101668.91
2018-12-27T10:52:49.636Z,101668.88
2018-12-27T10:55:18.826Z,101658.95
2018-12-27T10:57:47.879Z,101652.16
2018-12-27T11:00:16.931Z,101641.16
2018-12-27T11:02:46.049Z,101627.27
2018-12-27T11:05:15.391Z,101619.75
2018-12-27T11:07:44.464Z,101622.81
2018-12-27T11:10:13.550Z,101617.64
2018-12-27T11:12:42.608Z,101620.63
2018-12-27T11:15:11.677Z,101624.50
2018-12-27T11:17:40.761Z,101616.23
2018-12-27T11:20:09.814Z,101612.61
2018-12-27T11:22:38.869Z,101608.62
2018-12-27T11:25:07.968Z,101607.52
2018-12-27T11:27:37.021Z,101606.02
2018-12-27T11:30:06.079Z,101606.43
2018-12-27T11:32:35.160Z,101603.02
2018-12-27T11:35:04.211Z,101598.88
2018-12-27T11:37:33.299Z,101595.27
2018-12-27T11:40:02.387Z,101598.23
2018-12-27T11:42:31.455Z,101603.92
2018-12-27T11:45:00.509Z,101603.48
2018-12-27T11:47:29.592Z,101601.95
2018-12-27T11:49:58.787Z,101600.69
2018-12-27T11:52:27.855Z,101596.63
2018-12-27T11:54:56.959Z,101588.64
2018-12-27T11:57:26.016Z,101577.65
2018-12-27T11:59:55.074Z,101593.22
2018-12-27T12:02:30.897Z,101588.32
2018-12-27T12:04:53.228Z,101590.54
2018-12-27T12:07:22.297Z,101597.11
2018-12-27T12:09:51.401Z,101591.73
2018-12-27T12:12:20.449Z,101573.55
2018-12-27T12:14:49.527Z,101591.20
2018-12-27T12:17:18.600Z,101580.87
2018-12-27T12:19:47.668Z,101580.16
2018-12-27T12:22:16.732Z,101591.38
2018-12-27T12:24:45.826Z,101584.67
2018-12-27T12:27:14.880Z,101577.05
2018-12-27T12:29:44.290Z,101578.43
2018-12-27T12:32:13.407Z,101579.89
2018-12-27T12:34:42.453Z,101579.38
2018-12-27T12:37:14.212Z,101575.22
2018-12-27T12:39:40.582Z,101586.86
2018-12-27T12:42:09.638Z,101587.16
2018-12-27T12:44:38.696Z,101587.46
2018-12-27T12:47:07.777Z,101576.95
2018-12-27T12:49:36.816Z,101586.16
2018-12-27T12:52:05.872Z,101593.64
2018-12-27T12:54:34.980Z,101580.91
2018-12-27T12:57:04.032Z,101596.39
2018-12-27T12:59:33.082Z,101596.14
2018-12-27T13:02:02.172Z,101587.59
2018-12-27T13:04:31.225Z,101586.23
2018-12-27T13:07:00.505Z,101582.49
2018-12-27T13:09:30.341Z,101570.50
2018-12-27T13:11:59.387Z,101582.56
2018-12-27T13:14:28.445Z,101580.13
2018-12-27T13:16:57.678Z,101581.91
2018-12-27T13:19:26.733Z,101576.25
2018-12-27T13:21:55.793Z,101573.27
2018-12-27T13:24:24.874Z,101571.86
2018-12-27T13:26:53.932Z,101572.89
2018-12-27T13:29:22.991Z,101582.20
2018-12-27T13:31:52.100Z,101581.45
2018-12-27T13:34:21.158Z,101578.70
2018-12-27T13:36:50.235Z,101579.59
2018-12-27T13:39:19.320Z,101574.36
2018-12-27T13:41:48.407Z,101569.73
2018-12-27T13:44:17.463Z,101581.59
2018-12-27T13:46:46.577Z,101587.58
2018-12-27T13:49:15.615Z,101584.91
2018-12-27T13:51:44.654Z,101585.94
2018-12-27T13:54:13.784Z,101591.65
2018-12-27T13:56:42.851Z,101584.20
2018-12-27T13:59:11.914Z,101589.64
2018-12-27T14:01:41.044Z,101590.50
2018-12-27T14:04:10.117Z,101586.62
2018-12-27T14:06:39.176Z,101591.61
2018-12-27T14:09:08.261Z,101591.69
2018-12-27T14:11:37.334Z,101584.69
2018-12-27T14:14:06.387Z,101585.84
2018-12-27T14:16:35.489Z,101578.70
2018-12-27T14:19:04.525Z,101587.48
2018-12-27T14:21:33.611Z,101590.88
2018-12-27T14:24:02.878Z,101580.47
2018-12-27T14:26:31.916Z,101585.39
2018-12-27T14:29:00.997Z,101572.42
2018-12-27T14:31:30.062Z,101569.90
2018-12-27T14:33:59.110Z,101570.89
2018-12-27T14:36:45.014Z,101567.25
2018-12-27T14:39:14.072Z,101563.39
2018-12-27T14:41:43.140Z,101567.78
2018-12-27T14:44:12.239Z,101564.77
2018-12-27T14:46:41.294Z,101558.32
2018-12-27T14:49:10.361Z,101568.77
2018-12-27T14:51:39.438Z,101562.91
2018-12-27T14:54:08.493Z,101570.92
2018-12-27T14:56:37.547Z,101575.16
2018-12-27T14:59:06.883Z,101565.13
2018-12-27T15:01:35.941Z,101572.67
2018-12-27T15:04:04.997Z,101568.06
2018-12-27T15:06:34.135Z,101561.41
2018-12-27T15:09:03.199Z,101564.70
2018-12-27T15:11:32.250Z,101556.98
2018-12-27T15:14:01.317Z,101549.08
2018-12-27T15:16:30.370Z,101561.06
2018-12-27T15:18:59.427Z,101565.69
2018-12-27T15:21:28.533Z,101566.52
2018-12-27T15:23:57.584Z,101564.38
2018-12-27T15:26:26.649Z,101569.22
2018-12-27T15:28:55.764Z,101567.22
2018-12-27T15:31:24.828Z,101558.22
2018-12-27T15:33:53.894Z,101562.61
2018-12-27T15:36:22.979Z,101561.16
2018-12-27T15:38:52.045Z,101550.38
2018-12-27T15:41:21.104Z,101555.70
2018-12-27T15:43:50.192Z,101560.30
2018-12-27T15:46:19.262Z,101549.33
2018-12-27T15:48:48.323Z,101561.17
2018-12-27T15:51:17.454Z,101562.83
2018-12-27T15:53:46.511Z,101566.03
2018-12-27T15:56:15.566Z,101561.09
2018-12-27T15:58:44.646Z,101563.00
2018-12-27T16:01:13.694Z,101561.33
2018-12-27T16:03:42.761Z,101565.52
2018-12-27T16:06:11.848Z,101554.91
2018-12-27T16:08:40.906Z,101557.75
2018-12-27T16:11:09.956Z,101556.82
2018-12-27T16:13:39.162Z,101558.06
2018-12-27T16:16:08.246Z,101546.94
2018-12-27T16:18:37.304Z,101544.75
2018-12-27T16:21:06.391Z,101540.00
2018-12-27T16:23:35.725Z,101543.13
2018-12-27T16:26:04.783Z,101541.89
2018-12-27T16:28:33.867Z,101543.14
2018-12-27T16:31:02.933Z,101539.47
2018-12-27T16:33:31.981Z,101539.00
2018-12-27T16:36:01.122Z,101533.79
2018-12-27T16:38:30.179Z,101545.02
2018-12-27T16:40:59.246Z,101537.69
2018-12-27T16:43:28.316Z,101546.08
2018-12-27T16:45:57.373Z,101538.73
2018-12-27T16:48:26.435Z,101544.58
2018-12-27T16:50:55.519Z,101544.21
2018-12-27T16:53:24.572Z,101544.93
2018-12-27T16:55:53.628Z,101546.55
2018-12-27T16:58:23.995Z,101544.98
2018-12-27T17:00:52.957Z,101550.02
2018-12-27T17:03:22.025Z,101542.83
2018-12-27T17:05:51.117Z,101545.43
2018-12-27T17:08:20.218Z,101539.05
2018-12-27T17:10:49.263Z,101538.14
2018-12-27T17:13:18.440Z,101538.56
2018-12-27T17:15:47.505Z,101537.09
2018-12-27T17:18:16.577Z,101539.48
2018-12-27T17:20:45.799Z,101533.41
2018-12-27T17:23:14.879Z,101535.30
2018-12-27T17:25:44.089Z,101528.22
2018-12-27T17:28:14.082Z,101532.58
2018-12-27T17:30:43.183Z,101529.95
2018-12-27T17:33:13.395Z,101536.41
2018-12-27T17:35:43.638Z,101544.63
2018-12-27T17:38:12.730Z,101542.41
2018-12-27T17:40:42.200Z,101536.38
2018-12-27T17:43:11.456Z,101533.16
2018-12-27T17:45:40.635Z,101532.97
2018-12-27T17:48:09.780Z,101530.97
2018-12-27T17:50:39.013Z,101535.81
2018-12-27T17:53:09.681Z,101534.94
2018-12-27T17:55:37.654Z,101525.48
2018-12-27T17:58:06.790Z,101524.58
2018-12-27T18:00:35.939Z,101527.19
2018-12-27T18:03:06.207Z,101522.97
2018-12-27T18:05:35.903Z,101531.81
2018-12-27T18:08:05.297Z,101522.16
2018-12-27T18:10:34.224Z,101525.31
2018-12-27T18:13:03.437Z,101525.33
2018-12-27T18:15:32.841Z,101519.97
2018-12-27T18:18:01.813Z,101516.55
2018-12-27T18:20:31.013Z,101520.30
2018-12-27T18:23:00.377Z,101521.25
2018-12-27T18:25:29.379Z,101518.61
2018-12-27T18:27:58.667Z,101524.83
2018-12-27T18:30:27.713Z,101523.52
2018-12-27T18:32:56.821Z,101519.27
2018-12-27T18:35:25.892Z,101524.23
2018-12-27T18:37:55.055Z,101525.55
2018-12-27T18:40:24.025Z,101529.51
2018-12-27T18:42:53.119Z,101528.25
2018-12-27T18:45:22.166Z,101516.02
2018-12-27T18:47:51.236Z,101510.85
2018-12-27T18:50:20.349Z,101510.27
2018-12-27T18:52:50.390Z,101517.57
2018-12-27T18:55:20.251Z,101508.41
2018-12-27T18:57:48.532Z,101506.80
2018-12-27T19:00:17.594Z,101495.53
2018-12-27T19:02:46.691Z,101508.25
2018-12-27T19:05:16.005Z,101504.22
2018-12-27T19:07:45.272Z,101499.78
2018-12-27T19:10:14.000Z,101506.61
2018-12-27T19:12:58.541Z,101508.75
2018-12-27T19:15:27.590Z,101508.42
2018-12-27T19:17:56.666Z,101508.23
2018-12-27T19:20:25.752Z,101514.34
2018-12-27T19:22:54.816Z,101507.95
2018-12-27T19:25:23.888Z,101508.50
2018-12-27T19:27:53.190Z,101506.70
2018-12-27T19:30:22.253Z,101501.64
2018-12-27T19:32:51.320Z,101513.45
2018-12-27T19:35:20.405Z,101508.22
2018-12-27T19:37:52.206Z,101494.67
2018-12-27T19:40:18.533Z,101506.05
2018-12-27T19:42:47.647Z,101502.08
2018-12-27T19:45:16.728Z,101503.84
2018-12-27T19:47:45.776Z,101511.39
2018-12-27T19:50:14.885Z,101522.23
2018-12-27T19:52:43.958Z,101515.21
2018-12-27T19:55:13.022Z,101518.00
2018-12-27T19:57:42.110Z,101515.06
2018-12-27T20:00:11.168Z,101522.64
2018-12-27T20:02:41.278Z,101520.41
2018-12-27T20:05:11.254Z,101515.33
2018-12-27T20:07:40.379Z,101511.50
2018-12-27T20:10:09.528Z,101506.11
2018-12-27T20:12:38.723Z,101500.52
2018-12-27T20:15:07.845Z,101511.70
2018-12-27T20:17:37.064Z,101499.02
2018-12-27T20:20:06.294Z,101505.03
2018-12-27T20:22:36.437Z,101500.98
2018-12-27T20:25:05.669Z,101504.63
2018-12-27T20:27:34.855Z,101501.23
2018-12-27T20:30:03.996Z,101504.46
2018-12-27T20:32:33.089Z,101504.85
2018-12-27T20:35:02.184Z,101501.55
2018-12-27T20:37:31.444Z,101499.52
2018-12-27T20:40:00.598Z,101503.37
2018-12-27T20:42:29.749Z,101500.34
2018-12-27T20:44:58.905Z,101493.19
2018-12-27T20:47:27.996Z,101492.06
2018-12-27T20:49:57.169Z,101483.19
2018-12-27T20:52:26.228Z,101487.89
2018-12-27T20:54:55.288Z,101487.80
2018-12-27T20:57:24.446Z,101484.08
2018-12-27T20:59:53.477Z,101482.08
2018-12-27T21:02:22.765Z,101482.77
2018-12-27T21:04:51.631Z,101480.39
2018-12-27T21:07:21.054Z,101471.47
2018-12-27T21:09:50.013Z,101462.58
2018-12-27T21:12:19.183Z,101452.02
2018-12-27T21:14:48.253Z,101457.09
2018-12-27T21:17:17.337Z,101450.06
2018-12-27T21:19:46.445Z,101453.58
2018-12-27T21:22:15.573Z,101443.31
2018-12-27T21:24:44.650Z,101437.02
2018-12-27T21:27:14.114Z,101438.83
2018-12-27T21:29:43.178Z,101439.39
2018-12-27T21:32:12.286Z,101435.02
2018-12-27T21:34:41.399Z,101427.63
2018-12-27T21:37:10.468Z,101435.48
2018-12-27T21:39:39.640Z,101430.27
2018-12-27T21:42:08.756Z,101429.77
2018-12-27T21:44:37.849Z,101424.50
2018-12-27T21:47:06.922Z,101419.02
2018-12-27T21:49:36.013Z,101432.55
2018-12-27T21:52:05.085Z,101422.76
2018-12-27T21:54:34.184Z,101416.07
2018-12-27T21:57:03.283Z,101420.99
2018-12-27T21:59:32.379Z,101418.55
2018-12-27T22:02:01.458Z,101408.02
2018-12-27T22:04:30.557Z,101419.30
2018-12-27T22:06:59.617Z,101423.66
2018-12-27T22:09:28.702Z,101413.91
2018-12-27T22:11:57.845Z,101423.41
2018-12-27T22:14:26.934Z,101419.34
2018-12-27T22:16:56.035Z,101413.05
2018-12-27T22:19:25.172Z,101407.61
2018-12-27T22:21:54.233Z,101415.92
2018-12-27T22:24:23.309Z,101401.75
2018-12-27T22:26:52.411Z,101399.14
2018-12-27T22:29:21.465Z,101402.00
2018-12-27T22:31:50.952Z,101406.59
2018-12-27T22:34:19.637Z,101403.46
2018-12-27T22:36:48.700Z,101399.15
2018-12-27T22:39:17.758Z,101395.87
2018-12-27T22:41:47.102Z,101389.13
2018-12-27T22:44:16.182Z,101391.72
2018-12-27T22:46:45.236Z,101407.59
2018-12-27T22:49:14.331Z,101389.86
2018-12-27T22:51:43.363Z,101393.80
2018-12-27T22:54:12.473Z,101397.34
2018-12-27T22:56:41.531Z,101398.53
2018-12-27T22:59:10.587Z,101391.84
2018-12-27T23:01:39.655Z,101391.59
2018-12-27T23:04:08.937Z,101394.95
2018-12-27T23:06:38.013Z,101400.67
2018-12-27T23:09:07.068Z,101401.30
2018-12-27T23:11:36.154Z,101406.20
2018-12-27T23:14:05.234Z,101400.97
2018-12-27T23:16:34.286Z,101392.30
2018-12-27T23:19:03.373Z,101389.87
2018-12-27T23:21:32.432Z,101392.79
2018-12-27T23:24:01.480Z,101376.35
2018-12-27T23:26:30.598Z,101403.70
2018-12-27T23:28:59.645Z,101393.67
2018-12-27T23:31:28.709Z,101391.85
2018-12-27T23:33:57.794Z,101382.83
2018-12-27T23:36:26.831Z,101386.17
2018-12-27T23:38:55.902Z,101399.87
2018-12-27T23:41:25.142Z,101382.41
2018-12-27T23:43:54.206Z,101399.03
2018-12-27T23:46:23.288Z,101389.05
2018-12-27T23:48:52.872Z,101387.38
2018-12-27T23:51:21.926Z,101395.71
2018-12-27T23:53:50.982Z,101391.84
2018-12-27T23:56:20.076Z,101398.64
2018-12-27T23:58:49.117Z,101396.11
